Gainesville, GA

4:48 AM EDT on April 25, 2015 (GMT -0400)
Gilmer Memorial | | Change Station
CLOSE
Current Station
Airport
Location: Gainesville,
Elevation: 1276 ft
Nearby Weather Stations

Elev 1276 ft 34.27 °N, 83.83 °W | Updated 55 minutes ago

Rain
Rain
59 °F
Feels Like 59 °F
N
4
Wind Variable Wind from North

Today
High -- | Low -- °F
--% Chance of Precip.
Yesterday
High -- | Low -- °F
Precip. -- in
6:52 AM 8:14 PM
Waxing Crescent, 44% visible
Pressure 29.91 in
Visibility 9.0 miles
Clouds Mostly Cloudy 5000 ft
Overcast 7000 ft
Dew Point 55 °F
Humidity 87%
Rainfall 0.05 in
Snow Depth Not available.
UV 0 out of 12
Pollen 8.60 out of 12
Air Quality Not available.
Flu Activity Sporadic
METAR KGVL 250753Z AUTO 35003KT 9SM -RA BKN050 OVC070 15/13 A2993 RMK AO2 SLP126 P0005 T01500128

More Conditions Fewer Conditions

Pressure 29.91 in
Visibility 9.0 miles
Clouds Mostly Cloudy 5000 ft
Overcast 7000 ft
Dew Point 55 °F
Humidity 87%
Rainfall 0.05 in
Snow Depth Not available.
UV 0 out of 12
Pollen 8.60 out of 12
Air Quality Not available.
Flu Activity Sporadic
METAR KGVL 250753Z AUTO 35003KT 9SM -RA BKN050 OVC070 15/13 A2993 RMK AO2 SLP126 P0005 T01500128

More Conditions Fewer Conditions

10-Day Weather Forecast

Almanac

Astronomy

Apr. 25, 2015 Rise Set
Actual Time
Civil Twilight
Nautical Twilight
Astronomical Twilight
Moon
Length of Visible Light
Length of Day
Tomorrow will be .
, % of the Moon is Illuminated

Today's Extremes

State Highs State Lows

Community

WunderPhotos

Upload Photos

1,816,624 photos uploaded!

WunderBlogs® & News

Nearby

Air Quality

  Air Quality AQ Index Pollutant
Not available.

Snow Depth

Station Depth Elevation

Earthquake Activity

City Distance Mag. Time & Date
Minimum magnitude displayed is 2.5.

Coastal Water Temperatures

Place Temperature

Stations

Nearby Weather Stations

Station Location Temp. Windchill Dew Point Humidity Wind Precip. Elev Updated Type